powered by Meteolive.it
Dati meteo   Attuali  Passati Ogni 3 ore 7 Giorni 15 Giorni Avvisi Meteo Mappe meteo
Roma / Urbe, Italy
Alba: 5:15 AM UTC1
Tramonto: 7:00 PM UTC1
 Lat: 41.95N, Lon: 12.50E
ICAO Usato: LIRU
Condizioni Meteo Attuali Aggiornate: 23.04.2017 alle 20:50 LT
Quasi Sereno
Quasi Sereno
N/D
N/D
Temp: 17°C
Umidita': 39%
Direz/Vel. Vento: SSW 06 KTS
Pressione: 1019 hPa
Punto di rugiada: 3°C
Temperatura percepita: 17°C
Visibilitą: N/D
Temperatura percepita in
presenza di vento (Wind Chill)
:
17°C
T. max (ultime 24 ore): 19°C
T. min (ultime 24 ore): 6°C


METAR ORIGINALE
LIRU 231650Z 24006KT 210V270 CAVOK 17/03 Q1019